This is the latest recevied weather packets stored in our database for station/object EB2BAG-11. If no packets are shown the sender has not sent any weather packets the latest 10 day(s).
| Time | Temp. | Humidity | Pressure | Rain* | Wind** | Luminosity | Snow |
|---|---|---|---|---|---|---|---|
| 1777850158 | 17.22° C | 87% | 1013.4 hPa | - | - | - | - |
| 1777848958 | 16.67° C | 85% | 1013 hPa | - | - | - | - |
| 1777847757 | 16.67° C | 86% | 1012.7 hPa | - | - | - | - |
| 1777846557 | 16.67° C | 85% | 1013 hPa | - | - | - | - |
| 1777845357 | 17.22° C | 84% | 1012.9 hPa | - | - | - | - |
| 1777844157 | 17.78° C | 83% | 1012.9 hPa | - | - | - | - |
| 1777842957 | 17.78° C | 85% | 1012.9 hPa | - | - | - | - |
| 1777841757 | 17.22° C | 88% | 1013.2 hPa | - | - | - | - |
| 1777840557 | 18.33° C | 83% | 1013.1 hPa | - | - | - | - |
| 1777839357 | 18.33° C | 84% | 1012.8 hPa | - | - | - | - |
| 1777838157 | 18.33° C | 84% | 1012.8 hPa | - | - | - | - |
| 1777836957 | 17.78° C | 85% | 1012.6 hPa | - | - | - | - |
| 1777835756 | 19.44° C | 80% | 1012.2 hPa | - | - | - | - |
| 1777834556 | 18.89° C | 82% | 1011.9 hPa | - | - | - | - |
| 1777833356 | 19.44° C | 79% | 1011.7 hPa | - | - | - | - |
| 1777832156 | 20° C | 77% | 1011.3 hPa | - | - | - | - |
| 1777830955 | 19.44° C | 77% | 1011.3 hPa | - | - | - | - |
| 1777829755 | 19.44° C | 77% | 1011.1 hPa | - | - | - | - |
| 1777828555 | 20° C | 75% | 1011.1 hPa | - | - | - | - |
| 1777827355 | 20° C | 75% | 1011.3 hPa | - | - | - | - |
| 1777826155 | 20.56° C | 72% | 1010.9 hPa | - | - | - | - |
| 1777824955 | 20° C | 72% | 1011.1 hPa | - | - | - | - |
| 1777823755 | 18.89° C | 73% | 1011.4 hPa | - | - | - | - |
| 1777822555 | 18.89° C | 70% | 1011.8 hPa | - | - | - | - |
| 1777821354 | 18.33° C | 74% | 1012.3 hPa | - | - | - | - |
* Rain since midnight (hover to see other rain measurements)
** Current wind speed in m/s (hover to see current wind gust speed)